createdAt,value
2023-03-06T00:00:43.894Z,0.00
2023-03-06T00:01:43.900Z,0.00
2023-03-06T00:02:43.913Z,0.00
2023-03-06T00:03:43.906Z,0.00
2023-03-06T00:04:43.876Z,0.00
2023-03-06T00:05:43.862Z,0.00
2023-03-06T00:06:43.867Z,0.00
2023-03-06T00:07:43.870Z,0.00
2023-03-06T00:08:43.805Z,0.00
2023-03-06T00:09:43.803Z,0.00
2023-03-06T00:10:43.800Z,0.00
2023-03-06T00:11:43.775Z,0.00
2023-03-06T00:12:43.782Z,0.00
2023-03-06T00:13:43.769Z,0.00
2023-03-06T00:14:43.743Z,0.00
2023-03-06T00:15:43.781Z,0.00
2023-03-06T00:16:43.733Z,0.00
2023-03-06T00:17:43.715Z,0.00
2023-03-06T00:18:43.711Z,0.00
2023-03-06T00:19:43.707Z,0.00
2023-03-06T00:20:43.695Z,0.00
2023-03-06T00:21:43.688Z,0.00
2023-03-06T00:22:43.699Z,0.00
2023-03-06T00:23:43.650Z,0.00
2023-03-06T00:24:43.652Z,0.00
2023-03-06T00:25:43.639Z,0.00
2023-03-06T00:26:43.619Z,0.00
2023-03-06T00:27:43.625Z,0.00
2023-03-06T00:28:43.606Z,0.00
2023-03-06T00:29:43.609Z,0.00
2023-03-06T00:30:43.597Z,0.00
2023-03-06T00:31:43.628Z,0.00
2023-03-06T00:32:43.559Z,0.00
2023-03-06T00:33:43.551Z,0.00
2023-03-06T00:34:43.543Z,0.00
2023-03-06T00:35:43.621Z,0.00
2023-03-06T00:36:43.521Z,0.00
2023-03-06T00:37:43.511Z,0.00
2023-03-06T00:38:43.519Z,0.00
2023-03-06T00:39:43.484Z,0.00
2023-03-06T00:40:43.502Z,0.00
2023-03-06T00:41:45.942Z,0.00
2023-03-06T00:42:43.464Z,0.00
2023-03-06T00:43:43.445Z,0.00
2023-03-06T00:44:43.427Z,0.00
2023-03-06T00:45:43.463Z,0.00
2023-03-06T00:46:43.437Z,0.00
2023-03-06T00:47:43.393Z,0.00
2023-03-06T00:48:43.388Z,0.00
2023-03-06T00:49:43.393Z,0.00
2023-03-06T00:50:43.373Z,0.00
2023-03-06T00:51:43.365Z,0.00
2023-03-06T00:52:43.372Z,0.00
2023-03-06T00:53:43.343Z,0.00
2023-03-06T00:54:43.353Z,0.00
2023-03-06T00:55:43.336Z,0.00
2023-03-06T00:56:43.300Z,0.00
2023-03-06T00:57:43.287Z,0.00
2023-03-06T00:58:43.278Z,0.00
2023-03-06T00:59:43.264Z,0.00
2023-03-06T01:00:43.344Z,0.00
2023-03-06T01:01:43.302Z,0.00
2023-03-06T01:02:43.235Z,0.00
2023-03-06T01:03:43.238Z,0.00
2023-03-06T01:04:43.242Z,0.00
2023-03-06T01:05:43.211Z,0.00
2023-03-06T01:06:43.205Z,0.00
2023-03-06T01:07:43.252Z,0.00
2023-03-06T01:08:43.170Z,0.00
2023-03-06T01:09:43.166Z,0.00
2023-03-06T01:10:43.554Z,0.00
2023-03-06T01:11:43.135Z,0.00
2023-03-06T01:12:43.123Z,0.00
2023-03-06T01:13:43.135Z,0.00
2023-03-06T01:14:43.110Z,0.00
2023-03-06T01:15:43.104Z,0.00
2023-03-06T01:16:43.164Z,0.00
2023-03-06T01:17:43.073Z,0.00
2023-03-06T01:18:43.104Z,0.00
2023-03-06T01:19:43.082Z,0.00
2023-03-06T01:20:43.037Z,0.00
2023-03-06T01:21:43.026Z,0.00
2023-03-06T01:22:43.019Z,0.00
2023-03-06T01:23:43.013Z,0.00
2023-03-06T01:24:43.044Z,0.00
2023-03-06T01:25:42.995Z,0.00
2023-03-06T01:26:43.009Z,0.00
2023-03-06T01:27:42.972Z,0.00
2023-03-06T01:28:42.989Z,0.00
2023-03-06T01:29:42.943Z,0.00
2023-03-06T01:30:43.011Z,0.00
2023-03-06T01:31:42.993Z,0.00
2023-03-06T01:32:43.014Z,0.00
2023-03-06T01:33:42.916Z,0.00
2023-03-06T01:34:42.949Z,0.00
2023-03-06T01:35:42.976Z,0.00
2023-03-06T01:36:42.938Z,0.00
2023-03-06T01:37:42.880Z,0.00
2023-03-06T01:38:42.858Z,0.00
2023-03-06T01:39:42.845Z,0.00
2023-03-06T01:40:42.843Z,0.00
2023-03-06T01:41:42.819Z,0.00
2023-03-06T01:42:42.844Z,0.00
2023-03-06T01:43:42.803Z,0.00
2023-03-06T01:44:42.797Z,0.00
2023-03-06T01:45:42.810Z,0.00
2023-03-06T01:46:42.793Z,0.00
2023-03-06T01:47:42.757Z,0.00
2023-03-06T01:48:42.781Z,0.00
2023-03-06T01:49:42.733Z,0.00
2023-03-06T01:50:42.771Z,0.00
2023-03-06T01:51:42.735Z,0.00
2023-03-06T01:52:42.705Z,0.00
2023-03-06T01:53:42.701Z,0.00
2023-03-06T01:54:42.711Z,0.00
2023-03-06T01:55:42.675Z,0.00
2023-03-06T01:56:42.671Z,0.00
2023-03-06T01:57:42.668Z,0.00
2023-03-06T01:58:42.813Z,0.00
2023-03-06T01:59:42.657Z,0.00
2023-03-06T02:00:42.616Z,0.00
2023-03-06T02:01:42.624Z,0.00
2023-03-06T02:02:42.725Z,0.00
2023-03-06T02:03:42.591Z,0.00
2023-03-06T02:04:42.623Z,0.00
2023-03-06T02:05:42.593Z,0.00
2023-03-06T02:06:42.593Z,0.00
2023-03-06T02:07:42.562Z,0.00
2023-03-06T02:08:42.543Z,0.00
2023-03-06T02:09:42.547Z,0.00
2023-03-06T02:10:42.528Z,0.00
2023-03-06T02:11:42.624Z,0.00
2023-03-06T02:12:42.503Z,0.00
2023-03-06T02:13:42.514Z,0.00
2023-03-06T02:14:42.524Z,0.00
2023-03-06T02:15:42.495Z,0.00
2023-03-06T02:16:42.516Z,0.00
2023-03-06T02:17:42.451Z,0.00
2023-03-06T02:18:42.435Z,0.00
2023-03-06T02:19:42.436Z,0.00
2023-03-06T02:20:42.438Z,0.00
2023-03-06T02:21:42.418Z,0.00
2023-03-06T02:22:42.393Z,0.00
2023-03-06T02:23:42.382Z,0.00
2023-03-06T02:24:42.374Z,0.00
2023-03-06T02:25:42.414Z,0.00
2023-03-06T02:26:42.427Z,0.00
2023-03-06T02:27:42.348Z,0.00
2023-03-06T02:28:42.374Z,0.00
2023-03-06T02:29:42.327Z,0.00
2023-03-06T02:30:42.367Z,0.00
2023-03-06T02:31:42.304Z,0.00
2023-03-06T02:32:42.290Z,0.00
2023-03-06T02:33:42.288Z,0.00
2023-03-06T02:34:42.312Z,0.00
2023-03-06T02:35:42.398Z,0.00
2023-03-06T02:36:42.310Z,0.00
2023-03-06T02:37:42.270Z,0.00
2023-03-06T02:38:43.021Z,0.00
2023-03-06T02:39:42.546Z,0.00
2023-03-06T02:40:42.279Z,0.00
2023-03-06T02:41:43.017Z,0.00
2023-03-06T02:42:42.273Z,0.00
2023-03-06T02:43:42.298Z,0.00
2023-03-06T02:44:42.253Z,0.00
2023-03-06T02:45:45.613Z,0.00
2023-03-06T02:46:42.200Z,0.00
2023-03-06T02:47:42.140Z,0.00
2023-03-06T02:48:42.150Z,0.00
2023-03-06T02:49:42.130Z,0.00
2023-03-06T02:50:42.240Z,0.00
2023-03-06T02:51:42.136Z,0.00
2023-03-06T02:52:50.046Z,0.00
2023-03-06T02:53:42.074Z,0.00
2023-03-06T02:54:42.052Z,0.00
2023-03-06T02:55:42.070Z,0.00
2023-03-06T02:56:42.039Z,0.00
2023-03-06T02:57:42.026Z,0.00
2023-03-06T02:58:42.025Z,0.00
2023-03-06T02:59:42.012Z,0.00
2023-03-06T03:00:41.997Z,0.00
2023-03-06T03:01:42.110Z,0.00
2023-03-06T03:02:41.983Z,0.00
2023-03-06T03:03:41.954Z,0.00
2023-03-06T03:04:41.960Z,0.00
2023-03-06T03:05:41.936Z,0.00
2023-03-06T03:06:41.927Z,0.00
2023-03-06T03:07:41.925Z,0.00
2023-03-06T03:08:41.935Z,0.00
2023-03-06T03:09:41.898Z,0.00
2023-03-06T03:10:41.880Z,0.00
2023-03-06T03:11:41.875Z,0.00
2023-03-06T03:12:41.872Z,0.00
2023-03-06T03:13:41.858Z,0.00
2023-03-06T03:14:41.862Z,0.00
2023-03-06T03:15:41.943Z,0.00
2023-03-06T03:16:41.830Z,0.00
2023-03-06T03:17:41.840Z,0.00
2023-03-06T03:18:41.813Z,0.00
2023-03-06T03:19:41.791Z,0.00
2023-03-06T03:20:41.784Z,0.00
2023-03-06T03:21:41.790Z,0.00
2023-03-06T03:22:41.782Z,0.00
2023-03-06T03:23:41.784Z,0.00
2023-03-06T03:24:41.786Z,0.00
2023-03-06T03:25:41.746Z,0.00
2023-03-06T03:26:41.750Z,0.00
2023-03-06T03:27:41.714Z,0.00
2023-03-06T03:28:41.698Z,0.00
2023-03-06T03:29:41.701Z,0.00
2023-03-06T03:30:41.683Z,0.00
2023-03-06T03:31:41.670Z,0.00
2023-03-06T03:32:41.702Z,0.00
2023-03-06T03:33:41.698Z,0.00
2023-03-06T03:34:41.649Z,0.00
2023-03-06T03:35:41.681Z,0.00
2023-03-06T03:36:41.643Z,0.00
2023-03-06T03:37:41.622Z,0.00
2023-03-06T03:38:41.618Z,0.00
2023-03-06T03:39:41.602Z,0.00
2023-03-06T03:40:41.600Z,0.00
2023-03-06T03:41:41.573Z,0.00
2023-03-06T03:42:41.560Z,0.00
2023-03-06T03:43:41.561Z,0.00
2023-03-06T03:44:41.542Z,0.00
2023-03-06T03:45:41.530Z,0.00
2023-03-06T03:46:41.547Z,0.00
2023-03-06T03:47:41.502Z,0.00
2023-03-06T03:48:41.493Z,0.00
2023-03-06T03:49:41.520Z,0.00
2023-03-06T03:50:41.495Z,0.00
2023-03-06T03:51:41.470Z,0.00
2023-03-06T03:52:41.458Z,0.00
2023-03-06T03:53:41.444Z,0.00
2023-03-06T03:54:41.443Z,0.00
2023-03-06T03:55:41.417Z,0.00
2023-03-06T03:56:41.406Z,0.00
2023-03-06T03:57:41.437Z,0.00
2023-03-06T03:58:41.383Z,0.00
2023-03-06T03:59:41.368Z,0.00
2023-03-06T04:00:41.365Z,0.00
2023-03-06T04:01:41.418Z,0.00
2023-03-06T04:02:41.345Z,0.00
2023-03-06T04:03:41.354Z,0.00
2023-03-06T04:04:41.386Z,0.00
2023-03-06T04:05:41.326Z,0.00
2023-03-06T04:06:41.307Z,0.00
2023-03-06T04:07:41.288Z,0.00
2023-03-06T04:08:41.278Z,0.00
2023-03-06T04:09:41.281Z,0.00
2023-03-06T04:10:41.258Z,0.00
2023-03-06T04:11:41.245Z,0.00
2023-03-06T04:12:41.243Z,0.00
2023-03-06T04:13:41.230Z,0.00
2023-03-06T04:14:41.243Z,0.00
2023-03-06T04:15:41.200Z,0.00
2023-03-06T04:16:41.207Z,0.00
2023-03-06T04:17:41.181Z,0.00
2023-03-06T04:18:41.180Z,0.00
2023-03-06T04:19:41.163Z,0.00
2023-03-06T04:20:41.168Z,0.00
2023-03-06T04:21:41.157Z,0.00
2023-03-06T04:22:41.141Z,0.00
2023-03-06T04:23:41.139Z,0.00
2023-03-06T04:24:41.110Z,0.00
2023-03-06T04:25:41.124Z,0.00
2023-03-06T04:26:41.094Z,0.00
2023-03-06T04:27:41.078Z,0.00
2023-03-06T04:28:41.066Z,0.00
2023-03-06T04:29:41.056Z,0.00
2023-03-06T04:30:41.093Z,0.00
2023-03-06T04:31:41.125Z,0.00
2023-03-06T04:32:41.133Z,0.00
2023-03-06T04:33:41.023Z,0.00
2023-03-06T04:34:41.006Z,0.00
2023-03-06T04:35:41.059Z,0.00
2023-03-06T04:36:41.013Z,0.00
2023-03-06T04:37:41.011Z,0.00
2023-03-06T04:38:40.983Z,0.00
2023-03-06T04:39:40.959Z,0.00
2023-03-06T04:40:40.945Z,0.00
2023-03-06T04:41:40.968Z,0.00
2023-03-06T04:42:40.930Z,0.00
2023-03-06T04:43:40.918Z,0.00
2023-03-06T04:44:40.915Z,0.00
2023-03-06T04:45:40.930Z,0.00
2023-03-06T04:46:40.884Z,0.00
2023-03-06T04:47:40.899Z,0.00
2023-03-06T04:48:40.864Z,0.00
2023-03-06T04:49:40.845Z,0.00
2023-03-06T04:50:40.838Z,0.00
2023-03-06T04:51:40.855Z,0.00
2023-03-06T04:52:40.826Z,0.00
2023-03-06T04:53:40.852Z,0.00
2023-03-06T04:54:40.807Z,0.00
2023-03-06T04:55:40.784Z,0.00
2023-03-06T04:56:40.777Z,0.00
2023-03-06T04:57:40.782Z,0.00
2023-03-06T04:58:40.780Z,0.00
2023-03-06T04:59:40.756Z,0.00
2023-03-06T05:00:40.799Z,0.00
2023-03-06T05:01:40.734Z,0.00
2023-03-06T05:02:40.724Z,0.00
2023-03-06T05:03:40.708Z,0.00
2023-03-06T05:04:40.712Z,0.00
2023-03-06T05:05:40.686Z,0.00
2023-03-06T05:06:40.665Z,0.00
2023-03-06T05:07:40.658Z,0.00
2023-03-06T05:08:40.669Z,0.00
2023-03-06T05:09:40.684Z,0.00
2023-03-06T05:10:40.633Z,0.00
2023-03-06T05:11:40.613Z,0.00
2023-03-06T05:12:40.612Z,0.00
2023-03-06T05:13:40.600Z,0.00
2023-03-06T05:14:40.603Z,0.00
2023-03-06T05:15:40.599Z,0.00
2023-03-06T05:16:40.615Z,0.00
2023-03-06T05:17:40.547Z,0.00
2023-03-06T05:18:40.547Z,0.00
2023-03-06T05:19:40.535Z,0.00
2023-03-06T05:20:40.533Z,0.00
2023-03-06T05:21:40.508Z,0.00
2023-03-06T05:22:40.502Z,0.00
2023-03-06T05:23:40.483Z,0.00
2023-03-06T05:24:40.481Z,4.00
2023-03-06T05:25:40.536Z,4.00
2023-03-06T05:26:40.460Z,0.00
2023-03-06T05:27:40.461Z,4.00
2023-03-06T05:28:40.429Z,4.00
2023-03-06T05:29:40.425Z,4.00
2023-03-06T05:30:40.461Z,4.00
2023-03-06T05:31:40.505Z,4.00
2023-03-06T05:32:40.466Z,8.00
2023-03-06T05:33:40.391Z,8.00
2023-03-06T05:34:40.367Z,8.00
2023-03-06T05:35:40.422Z,8.00
2023-03-06T05:36:40.370Z,12.00
2023-03-06T05:37:40.351Z,16.00
2023-03-06T05:38:40.364Z,12.00
2023-03-06T05:39:40.348Z,12.00
2023-03-06T05:40:40.308Z,12.00
2023-03-06T05:41:40.333Z,16.00
2023-03-06T05:42:40.319Z,20.00
2023-03-06T05:43:40.283Z,20.00
2023-03-06T05:44:40.274Z,20.00
2023-03-06T05:45:40.299Z,24.00
2023-03-06T05:46:40.277Z,28.00
2023-03-06T05:47:40.239Z,24.00
2023-03-06T05:48:40.230Z,32.00
2023-03-06T05:49:40.220Z,36.00
2023-03-06T05:50:40.203Z,40.00
2023-03-06T05:51:40.201Z,40.00
2023-03-06T05:52:40.224Z,32.00
2023-03-06T05:53:40.192Z,36.00
2023-03-06T05:54:40.163Z,44.00
2023-03-06T05:55:40.157Z,48.00
2023-03-06T05:56:42.688Z,64.00
2023-03-06T05:57:40.179Z,72.00
2023-03-06T05:58:40.156Z,72.00
2023-03-06T05:59:40.104Z,92.00
2023-03-06T06:00:40.107Z,80.00
2023-03-06T06:01:40.096Z,80.00
2023-03-06T06:02:40.145Z,76.00
2023-03-06T06:03:40.133Z,96.00
2023-03-06T06:04:40.078Z,128.00
2023-03-06T06:05:40.044Z,160.00
2023-03-06T06:06:40.048Z,172.00
2023-03-06T06:07:40.037Z,176.00
2023-03-06T06:08:40.018Z,164.00
2023-03-06T06:09:40.054Z,176.00
2023-03-06T06:10:39.988Z,176.00
2023-03-06T06:11:39.998Z,156.00
2023-03-06T06:12:39.976Z,184.00
2023-03-06T06:13:39.979Z,196.00
2023-03-06T06:14:39.953Z,168.00
2023-03-06T06:15:39.994Z,164.00
2023-03-06T06:16:39.923Z,176.00
2023-03-06T06:17:39.917Z,164.00
2023-03-06T06:18:41.284Z,196.00
2023-03-06T06:19:39.934Z,204.00
2023-03-06T06:20:39.908Z,176.00
2023-03-06T06:21:39.886Z,220.00
2023-03-06T06:22:39.859Z,228.00
2023-03-06T06:23:39.869Z,212.00
2023-03-06T06:24:39.841Z,204.00
2023-03-06T06:25:39.847Z,216.00
2023-03-06T06:26:39.838Z,232.00
2023-03-06T06:27:39.814Z,232.00
2023-03-06T06:28:39.814Z,216.00
2023-03-06T06:29:39.807Z,208.00
2023-03-06T06:30:39.798Z,252.00
2023-03-06T06:31:39.780Z,232.00
2023-03-06T06:32:39.883Z,276.00
2023-03-06T06:33:39.744Z,284.00
2023-03-06T06:34:39.737Z,312.00
2023-03-06T06:35:39.776Z,296.00
2023-03-06T06:36:39.758Z,288.00
2023-03-06T06:37:39.720Z,332.00
2023-03-06T06:38:39.714Z,280.00
2023-03-06T06:39:39.683Z,304.00
2023-03-06T06:40:39.683Z,280.00
2023-03-06T06:41:55.509Z,380.00
2023-03-06T06:42:40.698Z,416.00
2023-03-06T06:43:39.650Z,380.00
2023-03-06T06:44:39.668Z,392.00
2023-03-06T06:45:39.640Z,392.00
2023-03-06T06:47:20.953Z,424.00
2023-03-06T06:47:40.628Z,488.00
2023-03-06T06:48:39.601Z,468.00
2023-03-06T06:49:39.589Z,476.00
2023-03-06T06:50:39.572Z,512.00
2023-03-06T06:51:39.573Z,548.00
2023-03-06T06:52:39.602Z,564.00
2023-03-06T06:53:39.552Z,548.00
2023-03-06T06:54:39.524Z,556.00
2023-03-06T06:55:39.514Z,660.00
2023-03-06T06:56:39.508Z,624.00
2023-03-06T06:57:39.510Z,704.00
2023-03-06T06:58:39.500Z,684.00
2023-03-06T06:59:39.498Z,564.00
2023-03-06T07:00:39.458Z,624.00
2023-03-06T07:01:39.568Z,584.00
2023-03-06T07:02:39.442Z,564.00
2023-03-06T07:03:39.478Z,660.00
2023-03-06T07:04:42.459Z,580.00
2023-03-06T07:05:40.417Z,620.00
2023-03-06T07:06:39.406Z,652.00
2023-03-06T07:07:39.392Z,508.00
2023-03-06T07:08:39.418Z,488.00
2023-03-06T07:09:39.392Z,516.00
2023-03-06T07:10:39.510Z,576.00
2023-03-06T07:11:39.374Z,780.00
2023-03-06T07:12:39.335Z,860.00
2023-03-06T07:13:39.331Z,876.00
2023-03-06T07:14:39.322Z,900.00
2023-03-06T07:15:39.374Z,1056.00
2023-03-06T07:16:39.302Z,1168.00
2023-03-06T07:17:39.306Z,1144.00
2023-03-06T07:18:39.282Z,1184.00
2023-03-06T07:19:39.644Z,1196.00
2023-03-06T07:20:39.251Z,1084.00
2023-03-06T07:21:39.272Z,856.00
2023-03-06T07:22:50.376Z,804.00
2023-03-06T07:23:40.231Z,1084.00
2023-03-06T07:24:39.222Z,1136.00
2023-03-06T07:25:39.208Z,1316.00
2023-03-06T07:26:39.207Z,1196.00
2023-03-06T07:27:39.247Z,1052.00
2023-03-06T07:28:51.566Z,824.00
2023-03-06T07:29:40.164Z,724.00
2023-03-06T07:30:39.177Z,844.00
2023-03-06T07:31:39.184Z,860.00
2023-03-06T07:32:39.445Z,1056.00
2023-03-06T07:33:39.132Z,1012.00
2023-03-06T07:34:39.119Z,1124.00
2023-03-06T07:35:39.224Z,1756.00
2023-03-06T07:36:39.131Z,1816.00
2023-03-06T07:37:39.149Z,1528.00
2023-03-06T07:38:39.071Z,1764.00
2023-03-06T07:39:39.057Z,1668.00
2023-03-06T07:40:39.054Z,1232.00
2023-03-06T07:41:39.039Z,1440.00
2023-03-06T07:42:39.027Z,1688.00
2023-03-06T07:43:39.031Z,1500.00
2023-03-06T07:44:38.999Z,1604.00
2023-03-06T07:45:38.989Z,1888.00
2023-03-06T07:46:39.043Z,1592.00
2023-03-06T07:47:38.967Z,1624.00
2023-03-06T07:48:38.986Z,1588.00
2023-03-06T07:49:38.976Z,1468.00
2023-03-06T07:50:38.956Z,1808.00
2023-03-06T07:51:38.934Z,2152.00
2023-03-06T07:52:38.921Z,2352.00
2023-03-06T07:53:38.923Z,1948.00
2023-03-06T07:54:38.906Z,1520.00
2023-03-06T07:55:38.901Z,1508.00
2023-03-06T07:56:38.884Z,2156.00
2023-03-06T07:57:38.874Z,2204.00
2023-03-06T07:58:38.881Z,2124.00
2023-03-06T07:59:38.843Z,1912.00
2023-03-06T08:00:38.846Z,2084.00
2023-03-06T08:01:38.816Z,2140.00
2023-03-06T08:02:38.818Z,2204.00
2023-03-06T08:03:38.856Z,2168.00
2023-03-06T08:04:38.808Z,2012.00
2023-03-06T08:05:38.807Z,1996.00
2023-03-06T08:06:38.772Z,1804.00
2023-03-06T08:07:38.768Z,1916.00
2023-03-06T08:08:38.748Z,1712.00
2023-03-06T08:09:38.750Z,1480.00
2023-03-06T08:10:38.734Z,1376.00
2023-03-06T08:11:38.731Z,1328.00
2023-03-06T08:12:38.717Z,1452.00
2023-03-06T08:13:38.734Z,1660.00
2023-03-06T08:14:38.685Z,1836.00
2023-03-06T08:15:38.695Z,1744.00
2023-03-06T08:16:38.716Z,1684.00
2023-03-06T08:17:38.656Z,1860.00
2023-03-06T08:18:38.649Z,1936.00
2023-03-06T08:19:38.675Z,1816.00
2023-03-06T08:20:38.611Z,1980.00
2023-03-06T08:21:38.884Z,1960.00
2023-03-06T08:22:38.615Z,1956.00
2023-03-06T08:23:38.762Z,2008.00
2023-03-06T08:24:38.574Z,1936.00
2023-03-06T08:25:38.858Z,1972.00
2023-03-06T08:26:38.579Z,1888.00
2023-03-06T08:27:38.548Z,1972.00
2023-03-06T08:28:38.529Z,2080.00
2023-03-06T08:29:38.559Z,1988.00
2023-03-06T08:30:38.500Z,1860.00
2023-03-06T08:31:38.645Z,1784.00
2023-03-06T08:32:38.606Z,2212.00
2023-03-06T08:33:38.475Z,2536.00
2023-03-06T08:34:38.479Z,2556.00
2023-03-06T08:35:38.466Z,2612.00
2023-03-06T08:36:38.467Z,2496.00
2023-03-06T08:37:38.530Z,2396.00
2023-03-06T08:38:38.423Z,2316.00
2023-03-06T08:39:38.410Z,2160.00
2023-03-06T08:40:38.390Z,2016.00
2023-03-06T08:41:38.383Z,1976.00
2023-03-06T08:42:38.391Z,1892.00
2023-03-06T08:43:38.391Z,1812.00
2023-03-06T08:44:38.349Z,1796.00
2023-03-06T08:45:38.382Z,1912.00
2023-03-06T08:46:38.330Z,1980.00
2023-03-06T08:47:38.417Z,2020.00
2023-03-06T08:48:38.329Z,2136.00
2023-03-06T08:49:38.301Z,2068.00
2023-03-06T08:50:38.288Z,2080.00
2023-03-06T08:51:38.279Z,2156.00
2023-03-06T08:52:38.280Z,2272.00
2023-03-06T08:53:43.588Z,2272.00
2023-03-06T08:54:39.267Z,2212.00
2023-03-06T08:55:38.232Z,2108.00
2023-03-06T08:56:38.300Z,2004.00
2023-03-06T08:57:38.205Z,1908.00
2023-03-06T08:58:38.199Z,1872.00
2023-03-06T08:59:38.223Z,1868.00
2023-03-06T09:00:38.231Z,1920.00
2023-03-06T09:01:38.306Z,1952.00
2023-03-06T09:02:38.334Z,2012.00
2023-03-06T09:03:38.144Z,2092.00
2023-03-06T09:04:38.156Z,2132.00
2023-03-06T09:05:38.126Z,2096.00
2023-03-06T09:06:38.120Z,2108.00
2023-03-06T09:07:38.110Z,2092.00
2023-03-06T09:08:38.088Z,2060.00
2023-03-06T09:09:38.138Z,2076.00
2023-03-06T09:10:38.115Z,2084.00
2023-03-06T09:11:38.064Z,2120.00
2023-03-06T09:12:49.452Z,2088.00
2023-03-06T09:13:39.045Z,1992.00
2023-03-06T09:14:38.061Z,1880.00
2023-03-06T09:15:38.080Z,1800.00
2023-03-06T09:16:38.061Z,1800.00
2023-03-06T09:17:38.068Z,1880.00
2023-03-06T09:18:38.008Z,1924.00
2023-03-06T09:19:37.979Z,1896.00
2023-03-06T09:20:37.975Z,1808.00
2023-03-06T09:21:37.952Z,1724.00
2023-03-06T09:22:37.940Z,1616.00
2023-03-06T09:23:37.931Z,1552.00
2023-03-06T09:24:37.939Z,1552.00
2023-03-06T09:25:37.946Z,1564.00
2023-03-06T09:26:46.189Z,1556.00
2023-03-06T09:27:38.895Z,1544.00
2023-03-06T09:28:37.893Z,1576.00
2023-03-06T09:29:37.864Z,1660.00
2023-03-06T09:30:37.920Z,1760.00
2023-03-06T09:31:37.866Z,1872.00
2023-03-06T09:32:37.940Z,1956.00
2023-03-06T09:33:37.833Z,1896.00
2023-03-06T09:34:37.832Z,1832.00
2023-03-06T09:35:37.837Z,1980.00
2023-03-06T09:36:53.342Z,2004.00
2023-03-06T09:37:39.130Z,1964.00
2023-03-06T09:38:37.782Z,2040.00
2023-03-06T09:39:37.768Z,2204.00
2023-03-06T09:40:37.753Z,2280.00
2023-03-06T09:41:37.786Z,2344.00
2023-03-06T09:42:37.730Z,2504.00
2023-03-06T09:43:37.729Z,2460.00
2023-03-06T09:44:37.709Z,2352.00
2023-03-06T09:45:37.707Z,2328.00
2023-03-06T09:46:37.682Z,2324.00
2023-03-06T09:47:37.702Z,2288.00
2023-03-06T09:48:37.661Z,2516.00
2023-03-06T09:49:37.683Z,2744.00
2023-03-06T09:50:37.651Z,2688.00
2023-03-06T09:51:37.634Z,2484.00
2023-03-06T09:52:38.003Z,2468.00
2023-03-06T09:53:37.610Z,2548.00
2023-03-06T09:54:37.597Z,2548.00
2023-03-06T09:55:37.591Z,2564.00
2023-03-06T09:56:37.573Z,2560.00
2023-03-06T09:57:37.614Z,2508.00
2023-03-06T09:58:37.547Z,2412.00
2023-03-06T09:59:37.537Z,2220.00
2023-03-06T10:00:37.549Z,2116.00
2023-03-06T10:01:37.524Z,2120.00
2023-03-06T10:02:37.632Z,2136.00
2023-03-06T10:03:37.513Z,2120.00
2023-03-06T10:04:37.554Z,1928.00
2023-03-06T10:05:37.475Z,2024.00
2023-03-06T10:06:37.465Z,2148.00
2023-03-06T10:07:37.488Z,2264.00
2023-03-06T10:08:37.472Z,2368.00
2023-03-06T10:09:37.425Z,2392.00
2023-03-06T10:10:37.442Z,2272.00
2023-03-06T10:11:37.416Z,2272.00
2023-03-06T10:12:37.547Z,2244.00
2023-03-06T10:13:37.792Z,2084.00
2023-03-06T10:14:37.670Z,1912.00
2023-03-06T10:15:37.938Z,1740.00
2023-03-06T10:16:37.435Z,1692.00
2023-03-06T10:17:37.338Z,1704.00
2023-03-06T10:18:37.360Z,1828.00
2023-03-06T10:19:37.332Z,1992.00
2023-03-06T10:20:37.344Z,2132.00
2023-03-06T10:21:37.346Z,2128.00
2023-03-06T10:22:37.291Z,2152.00
2023-03-06T10:23:37.290Z,2204.00
2023-03-06T10:24:37.269Z,2148.00
2023-03-06T10:25:37.286Z,2120.00
2023-03-06T10:26:37.311Z,2064.00
2023-03-06T10:27:37.258Z,2028.00
2023-03-06T10:28:37.233Z,1968.00
2023-03-06T10:29:38.528Z,1912.00
2023-03-06T10:30:37.203Z,1928.00
2023-03-06T10:31:37.204Z,2040.00
2023-03-06T10:32:48.380Z,2040.00
2023-03-06T10:33:38.186Z,2076.00
2023-03-06T10:34:37.165Z,2096.00
2023-03-06T10:35:37.185Z,2168.00
2023-03-06T10:36:37.155Z,2260.00
2023-03-06T10:37:37.135Z,2336.00
2023-03-06T10:38:37.154Z,2360.00
2023-03-06T10:39:37.132Z,2332.00
2023-03-06T10:40:37.105Z,2360.00
2023-03-06T10:41:37.091Z,2324.00
2023-03-06T10:42:37.079Z,2208.00
2023-03-06T10:43:37.093Z,2404.00
2023-03-06T10:44:37.056Z,2544.00
2023-03-06T10:45:48.653Z,2632.00
2023-03-06T10:46:38.080Z,2672.00
2023-03-06T10:47:37.115Z,2584.00
2023-03-06T10:48:37.070Z,2404.00
2023-03-06T10:49:37.003Z,2576.00
2023-03-06T10:50:36.991Z,2744.00
2023-03-06T10:51:37.069Z,2748.00
2023-03-06T10:52:36.979Z,2620.00
2023-03-06T10:53:36.991Z,2696.00
2023-03-06T10:54:36.952Z,2700.00
2023-03-06T10:55:36.949Z,2600.00
2023-03-06T10:56:36.931Z,2664.00
2023-03-06T10:57:36.909Z,2788.00
2023-03-06T10:58:36.902Z,2784.00
2023-03-06T10:59:36.907Z,2864.00
2023-03-06T11:00:36.887Z,2972.00
2023-03-06T11:01:36.958Z,3024.00
2023-03-06T11:02:36.871Z,3032.00
2023-03-06T11:03:36.855Z,3060.00
2023-03-06T11:04:36.887Z,2992.00
2023-03-06T11:05:36.830Z,2988.00
2023-03-06T11:06:36.834Z,3044.00
2023-03-06T11:07:36.812Z,3200.00
2023-03-06T11:08:36.803Z,3384.00
2023-03-06T11:09:36.795Z,3416.00
2023-03-06T11:10:36.784Z,3388.00
2023-03-06T11:11:38.140Z,3420.00
2023-03-06T11:12:36.760Z,3612.00
2023-03-06T11:13:36.751Z,3924.00
2023-03-06T11:14:36.748Z,4132.00
2023-03-06T11:15:36.746Z,4348.00
2023-03-06T11:16:36.749Z,4180.00
2023-03-06T11:17:36.736Z,3960.00
2023-03-06T11:18:36.691Z,3876.00
2023-03-06T11:19:36.677Z,3928.00
2023-03-06T11:20:50.437Z,3852.00
2023-03-06T11:21:37.681Z,3664.00
2023-03-06T11:22:36.650Z,3440.00
2023-03-06T11:23:36.640Z,3460.00
2023-03-06T11:24:36.627Z,3472.00
2023-03-06T11:25:36.611Z,3360.00
2023-03-06T11:26:36.732Z,3172.00
2023-03-06T11:27:36.609Z,3380.00
2023-03-06T11:28:36.576Z,3476.00
2023-03-06T11:29:38.692Z,3516.00
2023-03-06T11:30:36.555Z,3620.00
2023-03-06T11:31:36.576Z,3656.00
2023-03-06T11:32:36.656Z,3700.00
2023-03-06T11:33:36.597Z,3464.00
2023-03-06T11:34:36.544Z,3100.00
2023-03-06T11:35:36.515Z,3200.00
2023-03-06T11:36:36.495Z,3428.00
2023-03-06T11:37:36.511Z,3460.00
2023-03-06T11:38:36.476Z,3512.00
2023-03-06T11:39:36.466Z,3620.00
2023-03-06T11:40:36.459Z,3556.00
2023-03-06T11:41:36.441Z,3332.00
2023-03-06T11:42:36.427Z,3188.00
2023-03-06T11:43:36.443Z,3264.00
2023-03-06T11:44:36.429Z,3308.00
2023-03-06T11:45:36.419Z,3228.00
2023-03-06T11:46:36.437Z,3276.00
2023-03-06T11:47:36.384Z,3384.00
2023-03-06T11:48:36.383Z,3404.00
2023-03-06T11:49:36.385Z,3388.00
2023-03-06T11:50:36.394Z,3436.00
2023-03-06T11:51:36.352Z,3424.00
2023-03-06T11:52:36.323Z,3444.00
2023-03-06T11:53:36.365Z,3500.00
2023-03-06T11:54:36.314Z,3704.00
2023-03-06T11:55:36.299Z,3912.00
2023-03-06T11:56:36.310Z,4104.00
2023-03-06T11:57:36.281Z,4164.00
2023-03-06T11:58:36.268Z,4172.00
2023-03-06T11:59:36.288Z,4200.00
2023-03-06T12:00:36.241Z,4304.00
2023-03-06T12:01:36.282Z,4452.00
2023-03-06T12:02:36.232Z,4712.00
2023-03-06T12:03:36.214Z,4652.00
2023-03-06T12:04:36.220Z,4628.00
2023-03-06T12:05:36.308Z,4744.00
2023-03-06T12:06:36.178Z,4820.00
2023-03-06T12:07:36.175Z,5008.00
2023-03-06T12:08:36.164Z,5144.00
2023-03-06T12:09:36.180Z,5436.00
2023-03-06T12:10:36.196Z,5648.00
2023-03-06T12:11:36.165Z,5676.00
2023-03-06T12:12:36.128Z,5580.00
2023-03-06T12:13:36.116Z,5616.00
2023-03-06T12:14:36.118Z,5596.00
2023-03-06T12:15:36.127Z,5552.00
2023-03-06T12:16:36.138Z,5476.00
2023-03-06T12:17:36.089Z,5192.00
2023-03-06T12:18:36.115Z,4752.00
2023-03-06T12:19:36.058Z,4508.00
2023-03-06T12:20:36.058Z,4504.00
2023-03-06T12:21:36.037Z,4704.00
2023-03-06T12:22:36.028Z,5028.00
2023-03-06T12:23:36.010Z,5328.00
2023-03-06T12:24:35.996Z,5392.00
2023-03-06T12:25:35.992Z,5348.00
2023-03-06T12:26:35.988Z,5384.00
2023-03-06T12:27:35.962Z,5348.00
2023-03-06T12:28:35.958Z,5160.00
2023-03-06T12:29:35.934Z,5052.00
2023-03-06T12:30:35.934Z,5108.00
2023-03-06T12:31:35.962Z,4964.00
2023-03-06T12:32:35.935Z,4868.00
2023-03-06T12:33:35.916Z,4816.00
2023-03-06T12:34:35.892Z,4964.00
2023-03-06T12:35:35.899Z,5060.00
2023-03-06T12:36:35.933Z,5200.00
2023-03-06T12:37:35.874Z,5460.00
2023-03-06T12:38:35.857Z,5848.00
2023-03-06T12:39:35.839Z,5656.00
2023-03-06T12:40:35.835Z,5356.00